Gore, VA (22637)

4:28 AM EDT on August 31, 2015 (GMT -0400)
Walnut Springs | | Change Station
CLOSE
Current Station
Personal Weather Station
Location: Gore, VA
Elevation: 906 ft
Nearby Weather Stations

Elev 906 ft 39.27 °N, 78.30 °W | Updated 11 seconds ago

Mostly Cloudy
Mostly Cloudy
71.0 °F
Feels Like 71.0 °F
N
0.0
Wind Variable Wind from WSW
Gusts 0.0 mph

Today
High -- | Low -- °F
--% Chance of Precip.
Yesterday
High -- | Low -- °F
Precip. -- in
6:40 AM 7:46 PM
Waning Gibbous, 96% visible
Pressure 30.08 in
Visibility 10.0 miles
Clouds Clear
Dew Point 66 °F
Humidity 85%
Rainfall 0.00 in
Snow Depth Not available.
UV 0 out of 12
Pollen 9.60 out of 12
Air Quality Not available.
Flu Activity Not available.
METAR KOKV 310755Z AUTO 25003KT 10SM CLR 23/17 A3008 RMK AO2
Pressure 30.08 in
Visibility 10.0 miles
Clouds Clear
Dew Point 66 °F
Humidity 85%
Rainfall 0.00 in
Snow Depth Not available.
UV 0 out of 12
Pollen 9.60 out of 12
Air Quality Not available.
Flu Activity Not available.
METAR KOKV 310755Z AUTO 25003KT 10SM CLR 23/17 A3008 RMK AO2

10-Day Weather Forecast

×

Almanac

Astronomy

Aug. 31, 2015 Rise Set
Actual Time
Civil Twilight
Nautical Twilight
Astronomical Twilight
Moon
Length of Visible Light
Length of Day
Tomorrow will be .
, % of the Moon is Illuminated

Today's Extremes

State Highs State Lows

Community

WunderPhotos

Upload Photos

1,851,220 photos uploaded!

WunderBlogs® & News

Nearby

Air Quality

  Air Quality AQ Index Pollutant
Not available.

Snow Depth

Station Depth Elevation

Earthquake Activity

City Distance Mag. Time & Date
Minimum magnitude displayed is 2.5.

Coastal Water Temperatures

Place Temperature

Stations

Nearby Weather Stations

Station Location Temp. Windchill Dew Point Humidity Wind Precip. Elev Updated Type